createdAt,value
2022-10-19T00:01:39.205Z,21.92
2022-10-19T00:04:08.668Z,23.15
2022-10-19T00:06:36.876Z,26.77
2022-10-19T00:09:14.898Z,26.98
2022-10-19T00:11:43.790Z,20.08
2022-10-19T00:14:17.865Z,21.20
2022-10-19T00:16:46.366Z,27.58
2022-10-19T00:19:21.930Z,29.45
2022-10-19T00:24:20.466Z,18.42
2022-10-19T00:26:47.282Z,22.55
2022-10-19T00:29:14.735Z,18.73
2022-10-19T00:31:41.858Z,22.02
2022-10-19T00:34:08.645Z,21.15
2022-10-19T00:36:38.709Z,22.80
2022-10-19T00:39:07.513Z,23.65
2022-10-19T00:41:36.625Z,19.00
2022-10-19T00:44:33.805Z,20.52
2022-10-19T00:47:03.807Z,19.95
2022-10-19T00:49:36.165Z,22.05
2022-10-19T00:54:33.039Z,19.40
2022-10-19T00:57:00.132Z,22.27
2022-10-19T00:59:31.805Z,21.08
2022-10-19T01:01:59.348Z,19.77
2022-10-19T01:04:29.219Z,22.67
2022-10-19T01:06:56.990Z,26.40
2022-10-19T01:09:23.623Z,26.17
2022-10-19T01:12:26.785Z,33.17
2022-10-19T01:15:41.558Z,21.15
2022-10-19T01:18:30.608Z,27.00
2022-10-19T01:21:25.270Z,33.38
2022-10-19T01:24:26.230Z,21.13
2022-10-19T01:27:51.173Z,22.17
2022-10-19T01:30:33.428Z,23.33
2022-10-19T01:33:18.661Z,29.42
2022-10-19T01:36:09.294Z,24.27
2022-10-19T01:39:13.366Z,29.65
2022-10-19T01:42:18.570Z,26.33
2022-10-19T01:48:12.425Z,19.50
2022-10-19T01:50:59.144Z,26.80
2022-10-19T01:53:28.474Z,27.10
2022-10-19T01:55:56.764Z,26.50
2022-10-19T01:58:28.331Z,29.38
2022-10-19T02:00:57.357Z,32.27
2022-10-19T02:03:44.121Z,28.35
2022-10-19T02:06:12.729Z,29.05
2022-10-19T02:08:46.263Z,32.05
2022-10-19T02:11:12.971Z,30.13
2022-10-19T02:13:41.535Z,23.13
2022-10-19T02:16:29.758Z,25.42
2022-10-19T02:18:59.123Z,20.85
2022-10-19T02:21:26.712Z,21.80
2022-10-19T02:23:54.271Z,18.00
2022-10-19T02:26:21.770Z,18.73
2022-10-19T02:28:48.885Z,14.13
2022-10-19T02:31:15.726Z,11.77
2022-10-19T02:33:42.467Z,8.02
2022-10-19T02:36:09.120Z,8.95
2022-10-19T02:38:35.906Z,7.15
2022-10-19T02:41:11.353Z,6.78
2022-10-19T02:43:41.091Z,8.43
2022-10-19T02:46:14.011Z,7.43
2022-10-19T02:48:41.374Z,5.93
2022-10-19T02:51:27.245Z,7.88
2022-10-19T02:53:54.100Z,6.93
2022-10-19T02:56:21.062Z,4.53
2022-10-19T02:58:47.667Z,8.52
2022-10-19T03:01:14.965Z,9.15
2022-10-19T03:03:41.563Z,6.90
2022-10-19T03:06:08.524Z,11.45
2022-10-19T03:08:35.166Z,7.35
2022-10-19T03:11:01.745Z,10.40
2022-10-19T03:13:28.348Z,8.65
2022-10-19T03:15:54.993Z,10.70
2022-10-19T03:18:21.860Z,8.55
2022-10-19T03:20:48.430Z,57.88
2022-10-19T03:23:14.959Z,39.53
2022-10-19T03:25:41.522Z,36.60
2022-10-19T03:28:08.136Z,30.02
2022-10-19T03:30:34.964Z,24.27
2022-10-19T03:33:01.554Z,15.25
2022-10-19T03:35:28.095Z,11.73
2022-10-19T03:37:54.657Z,20.70
2022-10-19T03:40:21.294Z,20.90
2022-10-19T03:42:48.116Z,19.35
2022-10-19T03:45:15.435Z,18.00
2022-10-19T03:47:42.035Z,18.17
2022-10-19T03:50:11.710Z,12.65
2022-10-19T03:52:38.310Z,13.55
2022-10-19T03:55:05.804Z,9.90
2022-10-19T03:57:32.729Z,13.02
2022-10-19T03:59:59.777Z,8.00
2022-10-19T04:02:26.298Z,11.00
2022-10-19T04:04:52.898Z,7.22
2022-10-19T04:07:19.717Z,6.95
2022-10-19T04:09:46.467Z,8.77
2022-10-19T04:12:13.058Z,7.13
2022-10-19T04:14:56.186Z,10.65
2022-10-19T04:17:25.868Z,7.80
2022-10-19T04:19:52.518Z,7.00
2022-10-19T04:22:19.030Z,8.27
2022-10-19T04:24:45.570Z,7.65
2022-10-19T04:27:12.188Z,7.85
2022-10-19T04:29:38.859Z,10.23
2022-10-19T04:32:05.758Z,15.88
2022-10-19T04:34:35.178Z,11.27
2022-10-19T04:37:04.333Z,14.15
2022-10-19T04:39:30.911Z,9.77
2022-10-19T04:41:57.743Z,10.07
2022-10-19T04:46:55.797Z,14.38
2022-10-19T04:49:22.459Z,22.38
2022-10-19T04:51:49.010Z,12.65
2022-10-19T04:54:15.847Z,14.88
2022-10-19T04:56:42.454Z,11.85
2022-10-19T04:59:10.162Z,14.68
2022-10-19T05:01:36.961Z,12.77
2022-10-19T05:04:03.987Z,12.25
2022-10-19T05:06:31.718Z,11.70
2022-10-19T05:08:59.322Z,10.10
2022-10-19T05:11:26.461Z,12.35
2022-10-19T05:13:53.018Z,10.88
2022-10-19T05:16:22.289Z,15.73
2022-10-19T05:18:50.874Z,10.20
2022-10-19T05:21:19.275Z,8.85
2022-10-19T05:23:46.140Z,13.95
2022-10-19T05:26:16.573Z,14.85
2022-10-19T05:28:47.262Z,11.25
2022-10-19T05:31:16.182Z,13.20
2022-10-19T05:33:43.652Z,8.43
2022-10-19T05:36:27.822Z,10.77
2022-10-19T05:38:58.126Z,9.25
2022-10-19T05:41:25.762Z,8.60
2022-10-19T05:43:57.299Z,8.73
2022-10-19T05:46:25.181Z,6.07
2022-10-19T05:48:51.787Z,13.13
2022-10-19T05:51:20.162Z,9.63
2022-10-19T05:53:47.181Z,7.75
2022-10-19T05:56:20.013Z,6.00
2022-10-19T05:58:47.411Z,12.70
2022-10-19T06:01:14.554Z,9.45
2022-10-19T06:03:41.364Z,6.22
2022-10-19T06:06:09.267Z,6.75
2022-10-19T06:08:36.744Z,11.30
2022-10-19T06:11:24.950Z,11.48
2022-10-19T06:13:55.022Z,5.72
2022-10-19T06:16:23.866Z,8.30
2022-10-19T06:18:50.729Z,5.53
2022-10-19T06:21:21.303Z,9.77
2022-10-19T06:23:53.313Z,8.60
2022-10-19T06:26:20.817Z,3.63
2022-10-19T06:28:48.735Z,5.55
2022-10-19T06:31:15.971Z,9.27
2022-10-19T06:33:46.015Z,6.45
2022-10-19T06:36:18.818Z,8.73
2022-10-19T06:38:46.232Z,13.38
2022-10-19T06:41:13.494Z,10.68
2022-10-19T06:43:40.433Z,11.48
2022-10-19T06:46:09.526Z,7.18
2022-10-19T06:48:36.130Z,12.32
2022-10-19T06:51:06.407Z,7.20
2022-10-19T06:53:34.694Z,8.75
2022-10-19T06:56:03.356Z,12.73
2022-10-19T06:58:30.906Z,8.15
2022-10-19T07:01:01.304Z,7.22
2022-10-19T07:03:29.145Z,7.18
2022-10-19T07:05:57.391Z,5.93
2022-10-19T07:08:25.190Z,6.80
2022-10-19T07:11:00.266Z,9.07
2022-10-19T07:13:28.667Z,12.05
2022-10-19T07:16:03.578Z,8.85
2022-10-19T07:18:30.263Z,14.68
2022-10-19T07:20:59.094Z,6.47
2022-10-19T07:23:27.849Z,7.53
2022-10-19T07:26:00.645Z,6.22
2022-10-19T07:28:28.679Z,9.68
2022-10-19T07:30:55.698Z,7.28
2022-10-19T07:33:22.424Z,7.90
2022-10-19T07:35:49.084Z,6.88
2022-10-19T07:38:15.812Z,11.60
2022-10-19T07:40:46.345Z,10.15
2022-10-19T07:43:14.116Z,10.27
2022-10-19T07:45:40.680Z,6.93
2022-10-19T07:48:07.400Z,6.35
2022-10-19T07:50:33.974Z,7.40
2022-10-19T07:53:00.612Z,8.38
2022-10-19T07:55:27.197Z,12.75
2022-10-19T07:57:53.805Z,6.40
2022-10-19T08:00:20.425Z,7.50
2022-10-19T08:03:04.965Z,8.65
2022-10-19T08:05:34.479Z,5.95
2022-10-19T08:08:01.281Z,11.05
2022-10-19T08:10:27.943Z,11.15
2022-10-19T08:12:54.519Z,9.93
2022-10-19T08:15:21.088Z,10.07
2022-10-19T08:17:47.909Z,7.60
2022-10-19T08:20:14.495Z,9.55
2022-10-19T08:22:42.009Z,8.02
2022-10-19T08:25:08.730Z,12.38
2022-10-19T08:30:03.470Z,7.30
2022-10-19T08:32:30.062Z,12.20
2022-10-19T08:34:56.634Z,4.88
2022-10-19T08:37:40.345Z,8.77
2022-10-19T08:40:19.287Z,9.25
2022-10-19T08:43:10.190Z,5.50
2022-10-19T08:45:51.988Z,7.53
2022-10-19T08:48:25.398Z,7.10
2022-10-19T08:50:53.219Z,9.15
2022-10-19T08:53:54.691Z,7.18
2022-10-19T08:56:50.064Z,9.07
2022-10-19T08:59:55.758Z,7.85
2022-10-19T09:02:52.004Z,5.07
2022-10-19T09:05:35.856Z,7.03
2022-10-19T09:08:03.022Z,6.95
2022-10-19T09:10:35.530Z,6.38
2022-10-19T09:13:16.570Z,9.65
2022-10-19T09:15:46.365Z,9.80
2022-10-19T09:18:21.030Z,6.57
2022-10-19T09:20:50.333Z,10.60
2022-10-19T09:23:30.221Z,11.65
2022-10-19T09:25:57.790Z,11.35
2022-10-19T09:29:15.538Z,9.80
2022-10-19T09:31:45.666Z,10.93
2022-10-19T09:34:22.154Z,16.23
2022-10-19T09:36:57.438Z,18.55
2022-10-19T09:39:28.684Z,15.10
2022-10-19T09:41:59.934Z,16.90
2022-10-19T09:44:27.600Z,19.67
2022-10-19T09:47:20.640Z,19.73
2022-10-19T09:49:49.120Z,15.05
2022-10-19T09:52:36.167Z,12.32
2022-10-19T09:55:27.174Z,16.65
2022-10-19T09:58:03.164Z,14.93
2022-10-19T10:00:39.687Z,20.73
2022-10-19T10:03:07.633Z,17.95
2022-10-19T10:05:39.784Z,18.63
2022-10-19T10:08:22.714Z,17.75
2022-10-19T10:11:15.467Z,15.25
2022-10-19T10:16:16.745Z,18.40
2022-10-19T10:18:55.884Z,17.38
2022-10-19T10:21:47.805Z,20.77
2022-10-19T10:24:20.307Z,21.97
2022-10-19T10:26:50.075Z,17.55
2022-10-19T10:29:26.738Z,17.98
2022-10-19T10:32:16.424Z,16.45
2022-10-19T10:34:51.285Z,14.75
2022-10-19T10:37:40.431Z,16.15
2022-10-19T10:40:26.405Z,19.63
2022-10-19T10:42:55.257Z,17.98
2022-10-19T10:45:37.489Z,13.18
2022-10-19T10:48:28.768Z,15.95
2022-10-19T10:50:57.250Z,14.30
2022-10-19T10:53:44.083Z,20.15
2022-10-19T10:56:25.358Z,18.55
2022-10-19T10:59:10.660Z,16.10
2022-10-19T11:01:41.794Z,16.38
2022-10-19T11:04:37.287Z,18.27
2022-10-19T11:07:22.987Z,15.77
2022-10-19T11:09:57.342Z,14.18
2022-10-19T11:12:41.627Z,15.10
2022-10-19T11:15:35.326Z,16.48
2022-10-19T11:18:15.701Z,16.60
2022-10-19T11:20:51.810Z,14.70
2022-10-19T11:23:41.295Z,21.42
2022-10-19T11:26:26.303Z,15.95
2022-10-19T11:29:21.550Z,22.67
2022-10-19T11:31:51.360Z,18.42
2022-10-19T11:34:39.503Z,22.83
2022-10-19T11:37:26.043Z,21.35
2022-10-19T11:40:22.085Z,14.77
2022-10-19T11:43:31.008Z,17.35
2022-10-19T11:46:33.535Z,17.70
2022-10-19T11:49:25.353Z,17.15
2022-10-19T11:52:12.297Z,19.52
2022-10-19T11:55:23.297Z,17.60
2022-10-19T11:57:58.722Z,14.13
2022-10-19T12:00:45.592Z,16.52
2022-10-19T12:03:53.981Z,14.77
2022-10-19T12:07:08.449Z,21.58
2022-10-19T12:09:55.171Z,15.52
2022-10-19T12:12:41.675Z,15.82
2022-10-19T12:15:23.925Z,12.43
2022-10-19T12:17:52.968Z,12.80
2022-10-19T12:20:24.184Z,8.93
2022-10-19T12:22:51.029Z,9.90
2022-10-19T12:25:19.869Z,10.93
2022-10-19T12:27:49.158Z,9.80
2022-10-19T12:30:21.597Z,12.93
2022-10-19T12:33:22.789Z,7.70
2022-10-19T12:36:13.778Z,10.88
2022-10-19T12:39:33.388Z,4.85
2022-10-19T12:42:22.996Z,9.77
2022-10-19T12:45:31.197Z,8.65
2022-10-19T12:48:29.677Z,9.07
2022-10-19T12:51:02.442Z,8.93
2022-10-19T12:53:36.211Z,9.52
2022-10-19T12:56:07.157Z,14.50
2022-10-19T12:59:01.486Z,13.02
2022-10-19T13:01:54.784Z,14.02
2022-10-19T13:04:24.788Z,12.52
2022-10-19T13:07:18.263Z,15.95
2022-10-19T13:09:47.577Z,19.30
2022-10-19T13:12:44.394Z,14.27
2022-10-19T13:15:56.137Z,12.90
2022-10-19T13:19:04.383Z,11.10
2022-10-19T13:22:09.630Z,12.98
2022-10-19T13:24:37.619Z,25.88
2022-10-19T13:27:26.819Z,12.77
2022-10-19T13:29:54.054Z,10.63
2022-10-19T13:32:37.824Z,14.45
2022-10-19T13:35:30.680Z,10.00
2022-10-19T13:41:21.772Z,12.45
2022-10-19T13:44:35.332Z,14.18
2022-10-19T13:47:42.591Z,11.82
2022-10-19T13:50:43.725Z,13.57
2022-10-19T13:53:40.901Z,9.80
2022-10-19T13:56:27.702Z,11.80
2022-10-19T13:59:43.962Z,9.25
2022-10-19T14:02:50.463Z,10.15
2022-10-19T14:05:54.563Z,11.07
2022-10-19T14:09:04.556Z,10.48
2022-10-19T14:11:37.082Z,10.63
2022-10-19T14:14:15.749Z,16.30
2022-10-19T14:16:47.941Z,13.43
2022-10-19T14:19:26.731Z,7.00
2022-10-19T14:21:55.611Z,13.10
2022-10-19T14:24:29.397Z,8.73
2022-10-19T14:26:56.931Z,5.22
2022-10-19T14:29:23.686Z,9.15
2022-10-19T14:31:50.362Z,5.85
2022-10-19T14:34:16.965Z,7.85
2022-10-19T14:36:47.156Z,7.47
2022-10-19T14:39:32.156Z,8.50
2022-10-19T14:42:09.707Z,6.55
2022-10-19T14:44:42.119Z,9.48
2022-10-19T14:49:47.216Z,7.05
2022-10-19T14:52:24.637Z,8.48
2022-10-19T14:54:55.740Z,8.90
2022-10-19T14:57:36.139Z,7.28
2022-10-19T15:00:09.990Z,6.63
2022-10-19T15:02:40.336Z,5.97
2022-10-19T15:05:19.433Z,15.85
2022-10-19T15:07:46.893Z,8.05
2022-10-19T15:10:43.571Z,9.32
2022-10-19T15:13:22.874Z,7.55
2022-10-19T15:15:52.326Z,13.98
2022-10-19T15:18:43.839Z,6.63
2022-10-19T15:21:21.195Z,8.18
2022-10-19T15:23:50.438Z,14.40
2022-10-19T15:26:29.269Z,7.97
2022-10-19T15:29:12.740Z,7.07
2022-10-19T15:31:39.528Z,9.10
2022-10-19T15:34:06.122Z,8.60
2022-10-19T15:36:33.081Z,7.80
2022-10-19T15:39:18.175Z,11.00
2022-10-19T15:41:51.579Z,9.95
2022-10-19T15:44:42.023Z,14.20
2022-10-19T15:47:23.251Z,10.65
2022-10-19T15:50:01.538Z,7.43
2022-10-19T15:52:34.379Z,9.60
2022-10-19T15:55:01.448Z,8.05
2022-10-19T15:57:36.849Z,15.00
2022-10-19T16:00:16.440Z,9.73
2022-10-19T16:02:43.637Z,13.93
2022-10-19T16:05:10.936Z,13.00
2022-10-19T16:07:39.565Z,20.42
2022-10-19T16:10:07.233Z,16.42
2022-10-19T16:12:33.951Z,12.27
2022-10-19T16:15:00.750Z,11.38
2022-10-19T16:17:27.475Z,11.32
2022-10-19T16:19:54.061Z,13.73
2022-10-19T16:22:20.675Z,12.80
2022-10-19T16:24:47.491Z,11.27
2022-10-19T16:27:16.105Z,10.82
2022-10-19T16:29:44.361Z,14.68
2022-10-19T16:32:10.975Z,13.32
2022-10-19T16:34:38.054Z,16.25
2022-10-19T16:37:06.943Z,13.65
2022-10-19T16:39:34.651Z,12.32
2022-10-19T16:42:01.501Z,13.90
2022-10-19T16:44:28.084Z,13.80
2022-10-19T16:46:56.972Z,13.30
2022-10-19T16:49:23.877Z,13.95
2022-10-19T16:51:53.364Z,11.20
2022-10-19T16:54:23.530Z,15.73
2022-10-19T16:56:50.158Z,15.30
2022-10-19T16:59:18.910Z,14.65
2022-10-19T17:01:47.061Z,12.27
2022-10-19T17:04:15.938Z,17.08
2022-10-19T17:06:42.773Z,15.10
2022-10-19T17:11:56.491Z,15.82
2022-10-19T17:14:23.312Z,11.82
2022-10-19T17:16:49.920Z,15.20
2022-10-19T17:19:16.576Z,12.52
2022-10-19T17:21:43.534Z,16.55
2022-10-19T17:24:21.151Z,15.13
2022-10-19T17:26:50.846Z,13.18
2022-10-19T17:29:18.056Z,17.85
2022-10-19T17:31:44.666Z,25.58
2022-10-19T17:34:11.896Z,16.02
2022-10-19T17:39:25.642Z,13.73
2022-10-19T17:42:02.291Z,14.00
2022-10-19T17:44:30.921Z,14.60
2022-10-19T17:46:57.901Z,21.65
2022-10-19T17:49:24.509Z,15.20
2022-10-19T17:51:53.698Z,19.02
2022-10-19T17:54:20.610Z,13.85
2022-10-19T17:56:47.324Z,17.80
2022-10-19T17:59:14.491Z,22.00
2022-10-19T18:01:41.658Z,20.55
2022-10-19T18:04:08.278Z,28.02
2022-10-19T18:06:36.714Z,28.52
2022-10-19T18:09:06.230Z,23.02
2022-10-19T18:11:37.234Z,26.15
2022-10-19T18:14:05.055Z,34.17
2022-10-19T18:16:37.964Z,19.25
2022-10-19T18:19:06.862Z,22.33
2022-10-19T18:21:38.502Z,25.25
2022-10-19T18:24:09.068Z,20.05
2022-10-19T18:26:39.451Z,17.73
2022-10-19T18:29:16.270Z,18.55
2022-10-19T18:31:43.237Z,22.85
2022-10-19T18:34:16.504Z,15.23
2022-10-19T18:36:43.730Z,15.30
2022-10-19T18:39:11.641Z,15.68
2022-10-19T18:41:38.578Z,17.50
2022-10-19T18:44:06.422Z,14.75
2022-10-19T18:46:35.162Z,16.35
2022-10-19T18:49:03.373Z,20.63
2022-10-19T18:51:32.206Z,21.13
2022-10-19T18:53:59.024Z,18.48
2022-10-19T18:56:26.782Z,18.52
2022-10-19T18:58:53.427Z,15.30
2022-10-19T19:01:24.070Z,18.98
2022-10-19T19:03:52.603Z,16.42
2022-10-19T19:06:29.410Z,15.65
2022-10-19T19:09:00.664Z,19.83
2022-10-19T19:11:35.932Z,20.05
2022-10-19T19:14:15.538Z,17.35
2022-10-19T19:16:43.423Z,22.20
2022-10-19T19:19:13.097Z,13.38
2022-10-19T19:21:43.531Z,19.83
2022-10-19T19:24:12.893Z,13.77
2022-10-19T19:26:43.114Z,21.10
2022-10-19T19:29:09.749Z,13.25
2022-10-19T19:31:36.431Z,26.23
2022-10-19T19:34:06.277Z,20.67
2022-10-19T19:36:33.453Z,20.15
2022-10-19T19:39:00.174Z,21.02
2022-10-19T19:41:28.873Z,13.68
2022-10-19T19:43:58.204Z,19.80
2022-10-19T19:46:24.809Z,22.77
2022-10-19T19:48:51.401Z,13.73
2022-10-19T19:51:20.497Z,17.13
2022-10-19T19:53:48.304Z,18.33
2022-10-19T19:56:16.534Z,16.65
2022-10-19T19:58:44.374Z,16.17
2022-10-19T20:01:13.868Z,21.73
2022-10-19T20:03:41.336Z,14.27
2022-10-19T20:06:09.238Z,13.80
2022-10-19T20:08:37.355Z,14.82
2022-10-19T20:11:09.737Z,18.25
2022-10-19T20:13:37.691Z,13.25
2022-10-19T20:16:13.113Z,17.85
2022-10-19T20:18:41.180Z,17.23
2022-10-19T20:21:07.893Z,21.58
2022-10-19T20:23:34.442Z,17.52
2022-10-19T20:26:01.450Z,22.83
2022-10-19T20:28:28.707Z,12.77
2022-10-19T20:31:07.531Z,12.05
2022-10-19T20:33:36.178Z,10.85
2022-10-19T20:36:15.498Z,11.52
2022-10-19T20:38:52.892Z,16.98
2022-10-19T20:41:22.036Z,19.05
2022-10-19T20:43:49.024Z,15.73
2022-10-19T20:46:22.243Z,14.90
2022-10-19T20:48:50.301Z,10.63
2022-10-19T20:51:30.660Z,11.75
2022-10-19T20:54:00.994Z,15.80
2022-10-19T20:56:30.201Z,8.13
2022-10-19T20:59:05.619Z,14.15
2022-10-19T21:01:34.584Z,8.48
2022-10-19T21:04:04.607Z,13.18
2022-10-19T21:06:34.244Z,15.32
2022-10-19T21:09:01.507Z,14.80
2022-10-19T21:11:34.748Z,8.50
2022-10-19T21:14:03.923Z,17.45
2022-10-19T21:16:33.612Z,9.20
2022-10-19T21:19:01.810Z,9.50
2022-10-19T21:21:30.888Z,7.07
2022-10-19T21:24:00.869Z,10.18
2022-10-19T21:26:28.633Z,9.18
2022-10-19T21:28:55.838Z,12.00
2022-10-19T21:31:25.013Z,10.65
2022-10-19T21:33:52.594Z,8.27
2022-10-19T21:36:21.515Z,11.10
2022-10-19T21:38:48.494Z,8.77
2022-10-19T21:41:20.853Z,10.73
2022-10-19T21:43:50.615Z,10.25
2022-10-19T21:46:19.473Z,8.02
2022-10-19T21:48:46.258Z,12.75
2022-10-19T21:51:54.550Z,11.85
2022-10-19T21:54:24.745Z,11.02
2022-10-19T21:56:51.844Z,11.57
2022-10-19T21:59:19.146Z,11.75
2022-10-19T22:01:45.826Z,17.00
2022-10-19T22:04:14.615Z,7.20
2022-10-19T22:06:42.424Z,12.23
2022-10-19T22:09:13.254Z,5.35
2022-10-19T22:11:40.050Z,10.63
2022-10-19T22:14:06.661Z,11.85
2022-10-19T22:16:35.102Z,7.10
2022-10-19T22:19:01.882Z,5.93
2022-10-19T22:21:30.713Z,9.85
2022-10-19T22:24:03.595Z,6.72
2022-10-19T22:26:33.914Z,18.88
2022-10-19T22:29:01.814Z,7.47
2022-10-19T22:31:30.175Z,9.55
2022-10-19T22:33:57.111Z,7.72
2022-10-19T22:36:23.909Z,5.45
2022-10-19T22:38:50.627Z,8.50
2022-10-19T22:41:17.330Z,8.25
2022-10-19T22:43:44.089Z,8.52
2022-10-19T22:46:10.641Z,13.85
2022-10-19T22:48:37.445Z,7.15
2022-10-19T22:51:03.958Z,8.45
2022-10-19T22:53:30.569Z,8.40
2022-10-19T22:55:57.348Z,9.95
2022-10-19T22:58:23.934Z,4.47
2022-10-19T23:01:09.384Z,10.73
2022-10-19T23:03:36.175Z,6.43
2022-10-19T23:06:03.086Z,6.30
2022-10-19T23:08:29.763Z,10.75
2022-10-19T23:10:56.577Z,7.70
2022-10-19T23:13:23.797Z,9.65
2022-10-19T23:15:53.394Z,4.85
2022-10-19T23:18:20.019Z,8.43
2022-10-19T23:20:54.199Z,9.25
2022-10-19T23:23:20.866Z,12.75
2022-10-19T23:26:20.156Z,5.55
2022-10-19T23:28:49.238Z,8.13
2022-10-19T23:31:24.217Z,7.45
2022-10-19T23:33:51.594Z,5.78
2022-10-19T23:36:20.188Z,4.68
2022-10-19T23:38:48.754Z,9.73
2022-10-19T23:41:15.935Z,6.75
2022-10-19T23:43:42.548Z,4.35
2022-10-19T23:46:09.644Z,6.95
2022-10-19T23:48:36.926Z,8.00
2022-10-19T23:51:09.124Z,7.05
2022-10-19T23:53:40.772Z,3.90
2022-10-19T23:56:22.601Z,8.48
2022-10-19T23:58:50.066Z,8.05
